Hulett, Wyoming
Current Conditions -  °F | °C
As of 2:35 AM on Saturday 20 Dec 2014 (Local Time) from KSPF Reporting Station
Overcast Overcast  
Wind Chill: 32°   Ceiling: 8000
Heat Index: 32°   Visibility: 10mi
Dew Point: 19°   Wind: 0mph
Humidity: 60%   Direction: NA
Pressure: 29.89"   Gusts: NA
Location:  44.68°N, 104.6°W
Report Text: KSPF 200935Z AUTO 00000KT 10SM OVC080 00/M07 A2989 RMK AO2
Loading
Personal Weather Stations






























Interactive Weather Map New forecast layout! Learn more

10-Day Weather Forecast

Advertisements
Track Severe Weather on mobile